Croton, Ohio
Current Conditions -  °F | °C
As of 12:56 PM on Friday 31 Oct 2014 (Local Time) from K4I3 Reporting Station
Overcast Overcast  
Wind Chill: 42°   Ceiling: 3400
Heat Index: 46°   Visibility: 10mi
Dew Point: 37°   Wind: 8mph
Humidity: 71%   Direction: 190°S
Pressure: 29.88"   Gusts: NA
Location:  40.24°N, 82.7°W
Report Text: K4I3 311656Z AUTO 19007KT 10SM BKN034 OVC044 08/03 A2988 RMK AO2
Loading
Personal Weather Stations






























Interactive Weather Map
Tropical Storm Tracking
New forecast layout! Learn more

10-Day Weather Forecast

Advertisements
Track Severe Weather on mobile